createdAt,value
2017-05-09T00:00:45.204Z,5.30
2017-05-09T00:03:11.983Z,5.30
2017-05-09T00:05:38.788Z,5.30
2017-05-09T00:08:05.604Z,5.30
2017-05-09T00:10:32.414Z,5.30
2017-05-09T00:12:59.232Z,5.30
2017-05-09T00:15:27.000Z,5.30
2017-05-09T00:17:53.796Z,5.30
2017-05-09T00:20:21.376Z,5.20
2017-05-09T00:22:48.196Z,5.20
2017-05-09T00:25:14.986Z,5.20
2017-05-09T00:27:41.815Z,5.20
2017-05-09T00:30:08.601Z,5.20
2017-05-09T00:32:35.382Z,5.10
2017-05-09T00:35:02.952Z,5.00
2017-05-09T00:37:29.735Z,5.00
2017-05-09T00:39:56.601Z,4.90
2017-05-09T00:42:23.415Z,4.90
2017-05-09T00:44:50.972Z,4.80
2017-05-09T00:47:17.795Z,4.80
2017-05-09T00:49:45.324Z,4.80
2017-05-09T00:52:12.107Z,4.80
2017-05-09T00:54:38.992Z,4.80
2017-05-09T00:57:06.512Z,4.60
2017-05-09T00:59:33.296Z,4.60
2017-05-09T01:02:00.168Z,4.50
2017-05-09T01:04:27.046Z,4.50
2017-05-09T01:06:53.851Z,4.40
2017-05-09T01:09:21.435Z,4.40
2017-05-09T01:11:48.224Z,4.30
2017-05-09T01:14:15.767Z,4.40
2017-05-09T01:16:42.633Z,4.40
2017-05-09T01:19:09.443Z,4.40
2017-05-09T01:21:36.240Z,4.40
2017-05-09T01:24:03.064Z,4.30
2017-05-09T01:26:29.863Z,4.20
2017-05-09T01:28:56.687Z,4.20
2017-05-09T01:31:23.485Z,4.10
2017-05-09T01:33:50.271Z,4.10
2017-05-09T01:36:17.107Z,4.00
2017-05-09T01:38:43.911Z,4.00
2017-05-09T01:41:10.709Z,4.00
2017-05-09T01:43:37.567Z,4.00
2017-05-09T01:46:04.354Z,4.00
2017-05-09T01:48:31.221Z,3.90
2017-05-09T01:50:58.016Z,3.90
2017-05-09T01:53:24.867Z,3.70
2017-05-09T01:55:51.651Z,3.60
2017-05-09T01:58:18.443Z,3.60
2017-05-09T02:00:45.309Z,3.50
2017-05-09T02:03:12.126Z,3.50
2017-05-09T02:05:38.894Z,3.50
2017-05-09T02:08:05.675Z,3.40
2017-05-09T02:10:32.490Z,3.40
2017-05-09T02:12:59.270Z,3.40
2017-05-09T02:15:26.071Z,3.30
2017-05-09T02:17:52.898Z,3.30
2017-05-09T02:20:19.675Z,3.30
2017-05-09T02:22:47.249Z,3.30
2017-05-09T02:25:14.822Z,3.10
2017-05-09T02:27:41.598Z,3.10
2017-05-09T02:30:09.135Z,2.90
2017-05-09T02:32:35.955Z,2.90
2017-05-09T02:35:02.775Z,2.90
2017-05-09T02:37:29.608Z,2.90
2017-05-09T02:39:56.391Z,2.90
2017-05-09T02:42:23.924Z,2.90
2017-05-09T02:44:50.747Z,2.90
2017-05-09T02:47:17.578Z,2.80
2017-05-09T02:49:44.363Z,2.80
2017-05-09T02:52:11.191Z,2.70
2017-05-09T02:54:37.962Z,2.70
2017-05-09T02:57:05.537Z,2.60
2017-05-09T02:59:32.324Z,2.60
2017-05-09T03:01:59.091Z,2.50
2017-05-09T03:04:25.926Z,2.50
2017-05-09T03:06:52.746Z,2.50
2017-05-09T03:09:19.563Z,2.50
2017-05-09T03:11:46.343Z,2.50
2017-05-09T03:14:13.206Z,2.60
2017-05-09T03:16:40.737Z,2.50
2017-05-09T03:19:08.262Z,2.50
2017-05-09T03:21:35.098Z,2.50
2017-05-09T03:24:01.866Z,2.50
2017-05-09T03:26:28.639Z,2.60
2017-05-09T03:28:55.470Z,2.50
2017-05-09T03:31:22.250Z,2.50
2017-05-09T03:33:49.122Z,2.60
2017-05-09T03:36:15.895Z,2.50
2017-05-09T03:38:42.689Z,2.50
2017-05-09T03:41:09.531Z,2.50
2017-05-09T03:43:37.048Z,2.30
2017-05-09T03:46:03.882Z,2.20
2017-05-09T03:48:30.655Z,2.10
2017-05-09T03:50:57.427Z,2.00
2017-05-09T03:53:24.262Z,2.00
2017-05-09T03:55:51.035Z,2.10
2017-05-09T03:58:17.814Z,2.20
2017-05-09T04:00:44.668Z,2.30
2017-05-09T04:03:12.183Z,2.20
2017-05-09T04:05:38.974Z,2.20
2017-05-09T04:08:05.795Z,2.30
2017-05-09T04:10:32.580Z,2.20
2017-05-09T04:12:59.458Z,2.20
2017-05-09T04:15:26.230Z,2.30
2017-05-09T04:17:53.055Z,2.20
2017-05-09T04:20:19.839Z,2.20
2017-05-09T04:22:46.660Z,2.10
2017-05-09T04:25:13.435Z,2.20
2017-05-09T04:27:40.211Z,2.30
2017-05-09T04:30:07.034Z,2.30
2017-05-09T04:32:33.858Z,2.30
2017-05-09T04:35:00.639Z,2.40
2017-05-09T04:37:27.475Z,2.30
2017-05-09T04:39:54.259Z,2.30
2017-05-09T04:42:21.038Z,2.30
2017-05-09T04:44:47.864Z,2.30
2017-05-09T04:47:14.746Z,2.40
2017-05-09T04:49:41.517Z,2.50
2017-05-09T04:52:08.286Z,2.60
2017-05-09T04:54:35.127Z,2.60
2017-05-09T04:57:02.667Z,2.70
2017-05-09T04:59:29.514Z,2.80
2017-05-09T05:01:57.035Z,2.70
2017-05-09T05:04:23.810Z,2.70
2017-05-09T05:06:50.661Z,2.80
2017-05-09T05:09:17.447Z,2.80
2017-05-09T05:11:44.243Z,2.80
2017-05-09T05:14:11.065Z,2.80
2017-05-09T05:16:37.842Z,2.90
2017-05-09T05:19:04.918Z,2.80
2017-05-09T05:21:31.739Z,2.90
2017-05-09T05:23:58.542Z,2.90
2017-05-09T05:26:25.443Z,2.90
2017-05-09T05:28:53.026Z,2.90
2017-05-09T05:31:19.847Z,3.10
2017-05-09T05:33:46.663Z,3.20
2017-05-09T05:36:13.474Z,3.30
2017-05-09T05:38:40.303Z,3.30
2017-05-09T05:41:07.087Z,3.20
2017-05-09T05:43:33.890Z,3.30
2017-05-09T05:46:00.749Z,3.30
2017-05-09T05:48:27.594Z,3.30
2017-05-09T05:50:54.378Z,3.50
2017-05-09T05:53:21.211Z,3.50
2017-05-09T05:55:47.978Z,3.60
2017-05-09T05:58:15.481Z,3.80
2017-05-09T06:00:42.304Z,4.00
2017-05-09T06:03:09.070Z,4.00
2017-05-09T06:05:35.843Z,4.10
2017-05-09T06:08:02.699Z,4.20
2017-05-09T06:10:29.479Z,4.20
2017-05-09T06:12:56.260Z,4.30
2017-05-09T06:15:23.103Z,4.40
2017-05-09T06:17:49.886Z,4.50
2017-05-09T06:20:16.662Z,4.50
2017-05-09T06:22:43.474Z,4.50
2017-05-09T06:25:10.298Z,4.80
2017-05-09T06:27:37.072Z,4.90
2017-05-09T06:30:03.865Z,4.70
2017-05-09T06:32:30.764Z,4.70
2017-05-09T06:34:57.539Z,4.60
2017-05-09T06:37:25.051Z,4.70
2017-05-09T06:39:51.872Z,5.00
2017-05-09T06:42:18.642Z,5.00
2017-05-09T06:44:46.203Z,5.20
2017-05-09T06:49:46.587Z,5.50
2017-05-09T06:52:13.362Z,5.50
2017-05-09T06:54:40.139Z,5.80
2017-05-09T06:57:07.736Z,6.00
2017-05-09T06:59:34.505Z,6.00
2017-05-09T07:02:01.282Z,5.90
2017-05-09T07:04:28.095Z,5.80
2017-05-09T07:06:54.925Z,5.80
2017-05-09T07:09:21.694Z,5.80
2017-05-09T07:11:48.471Z,5.90
2017-05-09T07:14:15.302Z,5.70
2017-05-09T07:16:42.078Z,5.80
2017-05-09T07:19:08.866Z,6.00
2017-05-09T07:21:35.715Z,6.10
2017-05-09T07:24:02.503Z,6.30
2017-05-09T07:26:30.055Z,6.60
2017-05-09T07:28:56.885Z,6.90
2017-05-09T07:31:23.702Z,7.00
2017-05-09T07:33:51.208Z,6.90
2017-05-09T07:36:18.043Z,6.80
2017-05-09T07:38:44.817Z,6.80
2017-05-09T07:41:11.601Z,6.80
2017-05-09T07:43:38.407Z,7.00
2017-05-09T07:46:05.192Z,6.90
2017-05-09T07:48:32.029Z,6.80
2017-05-09T07:50:58.814Z,7.10
2017-05-09T07:53:25.592Z,7.40
2017-05-09T07:55:52.406Z,7.50
2017-05-09T07:58:19.190Z,7.70
2017-05-09T08:00:46.002Z,7.90
2017-05-09T08:03:12.779Z,8.00
2017-05-09T08:05:39.610Z,8.00
2017-05-09T08:08:06.391Z,7.40
2017-05-09T08:10:33.158Z,7.30
2017-05-09T08:13:00.726Z,7.20
2017-05-09T08:15:27.507Z,7.10
2017-05-09T08:17:54.336Z,6.90
2017-05-09T08:20:21.114Z,6.80
2017-05-09T08:22:47.895Z,6.80
2017-05-09T08:25:14.699Z,6.80
2017-05-09T08:27:41.518Z,6.90
2017-05-09T08:30:08.286Z,7.10
2017-05-09T08:32:35.847Z,7.40
2017-05-09T08:35:02.671Z,7.70
2017-05-09T08:37:29.479Z,7.90
2017-05-09T08:39:56.255Z,8.20
2017-05-09T08:42:23.075Z,8.40
2017-05-09T08:44:49.892Z,8.60
2017-05-09T08:47:16.714Z,8.60
2017-05-09T08:49:43.488Z,8.80
2017-05-09T08:52:10.267Z,8.80
2017-05-09T08:54:37.070Z,8.40
2017-05-09T08:57:04.591Z,8.40
2017-05-09T08:59:31.416Z,8.30
2017-05-09T09:01:58.226Z,8.20
2017-05-09T09:04:25.034Z,8.10
2017-05-09T09:06:51.820Z,8.20
2017-05-09T09:09:18.630Z,8.10
2017-05-09T09:11:45.394Z,7.90
2017-05-09T09:14:12.949Z,7.90
2017-05-09T09:16:39.771Z,7.90
2017-05-09T09:19:06.599Z,7.90
2017-05-09T09:21:33.381Z,7.90
2017-05-09T09:24:00.218Z,7.80
2017-05-09T09:26:26.995Z,7.70
2017-05-09T09:28:53.817Z,7.70
2017-05-09T09:31:20.600Z,7.80
2017-05-09T09:33:47.450Z,8.10
2017-05-09T09:36:14.970Z,8.30
2017-05-09T09:38:41.786Z,8.20
2017-05-09T09:41:08.567Z,8.00
2017-05-09T09:43:35.384Z,8.10
2017-05-09T09:46:02.915Z,8.30
2017-05-09T09:48:29.719Z,8.20
2017-05-09T09:50:56.538Z,8.10
2017-05-09T09:53:24.055Z,8.20
2017-05-09T09:55:50.866Z,8.30
2017-05-09T09:58:17.635Z,8.50
2017-05-09T10:00:45.206Z,8.80
2017-05-09T10:03:11.989Z,9.10
2017-05-09T10:05:38.754Z,9.20
2017-05-09T10:08:05.570Z,9.50
2017-05-09T10:10:33.118Z,9.60
2017-05-09T10:13:00.633Z,9.70
2017-05-09T10:15:27.478Z,9.60
2017-05-09T10:17:54.998Z,9.60
2017-05-09T10:20:21.779Z,9.40
2017-05-09T10:22:48.613Z,9.30
2017-05-09T10:25:15.390Z,9.50
2017-05-09T10:27:42.172Z,9.80
2017-05-09T10:30:08.978Z,10.10
2017-05-09T10:32:36.527Z,10.10
2017-05-09T10:35:03.335Z,10.10
2017-05-09T10:37:30.870Z,10.20
2017-05-09T10:39:57.686Z,10.50
2017-05-09T10:42:24.466Z,10.80
2017-05-09T10:44:51.283Z,10.90
2017-05-09T10:47:18.098Z,11.00
2017-05-09T10:49:45.609Z,10.90
2017-05-09T10:52:13.174Z,10.70
2017-05-09T10:54:39.951Z,10.30
2017-05-09T10:57:06.738Z,10.10
2017-05-09T10:59:33.555Z,10.40
2017-05-09T11:02:00.411Z,10.10
2017-05-09T11:04:27.195Z,10.10
2017-05-09T11:06:54.722Z,10.10
2017-05-09T11:09:22.290Z,10.20
2017-05-09T11:11:49.058Z,10.30
2017-05-09T11:14:15.882Z,10.10
2017-05-09T11:16:42.647Z,10.00
2017-05-09T11:19:09.456Z,10.00
2017-05-09T11:21:36.246Z,10.10
2017-05-09T11:24:03.062Z,10.10
2017-05-09T11:26:29.839Z,10.30
2017-05-09T11:28:56.726Z,10.30
2017-05-09T11:31:23.503Z,10.40
2017-05-09T11:33:50.306Z,10.30
2017-05-09T11:36:17.135Z,10.30
2017-05-09T11:38:43.952Z,10.40
2017-05-09T11:41:10.828Z,10.80
2017-05-09T11:43:38.390Z,11.10
2017-05-09T11:46:05.205Z,11.30
2017-05-09T11:48:32.731Z,11.70
2017-05-09T11:50:59.614Z,11.80
2017-05-09T11:53:26.407Z,11.70
2017-05-09T11:55:53.935Z,11.20
2017-05-09T11:58:20.756Z,10.90
2017-05-09T12:00:47.530Z,10.80
2017-05-09T12:03:14.345Z,10.80
2017-05-09T12:05:41.858Z,10.50
2017-05-09T12:08:08.682Z,10.30
2017-05-09T12:10:35.498Z,10.40
2017-05-09T12:13:02.282Z,10.60
2017-05-09T12:15:29.107Z,10.60
2017-05-09T12:17:55.884Z,10.70
2017-05-09T12:20:22.695Z,11.00
2017-05-09T12:22:49.470Z,11.40
2017-05-09T12:25:17.031Z,11.90
2017-05-09T12:27:43.799Z,12.80
2017-05-09T12:30:10.617Z,13.50
2017-05-09T12:32:37.420Z,14.50
2017-05-09T12:35:04.258Z,14.90
2017-05-09T12:37:31.042Z,15.10
2017-05-09T12:39:57.839Z,15.00
2017-05-09T12:42:24.642Z,14.50
2017-05-09T12:44:51.422Z,13.90
2017-05-09T12:47:18.276Z,13.30
2017-05-09T12:49:45.778Z,12.90
2017-05-09T12:52:12.595Z,12.50
2017-05-09T12:54:39.362Z,12.50
2017-05-09T12:57:06.918Z,12.70
2017-05-09T12:59:33.695Z,13.40
2017-05-09T13:02:00.535Z,14.40
2017-05-09T13:04:27.334Z,15.40
2017-05-09T13:06:54.106Z,16.40
2017-05-09T13:09:20.989Z,18.90
2017-05-09T13:11:47.871Z,20.60
2017-05-09T13:14:15.426Z,18.50
2017-05-09T13:16:42.946Z,16.80
2017-05-09T13:19:09.766Z,14.80
2017-05-09T13:21:36.535Z,14.40
2017-05-09T13:24:03.356Z,15.10
2017-05-09T13:26:30.147Z,16.20
2017-05-09T13:28:57.016Z,16.70
2017-05-09T13:31:23.796Z,17.70
2017-05-09T13:33:50.658Z,19.10
2017-05-09T13:36:18.168Z,18.80
2017-05-09T13:38:44.978Z,19.30
2017-05-09T13:41:11.808Z,18.20
2017-05-09T13:43:38.618Z,18.40
2017-05-09T13:46:05.435Z,18.20
2017-05-09T13:48:32.215Z,17.50
2017-05-09T13:50:59.814Z,16.40
2017-05-09T13:53:26.671Z,15.60
2017-05-09T13:55:53.503Z,14.60
2017-05-09T13:58:20.315Z,14.50
2017-05-09T14:00:47.095Z,14.30
2017-05-09T14:03:14.650Z,13.70
2017-05-09T14:05:42.173Z,13.50
2017-05-09T14:08:09.014Z,13.50
2017-05-09T14:10:36.535Z,13.50
2017-05-09T14:13:03.313Z,14.00
2017-05-09T14:15:30.135Z,14.10
2017-05-09T14:17:56.974Z,14.40
2017-05-09T14:20:23.763Z,14.90
2017-05-09T14:22:51.296Z,15.40
2017-05-09T14:25:18.135Z,14.50
2017-05-09T14:27:45.666Z,14.30
2017-05-09T14:30:12.438Z,13.60
2017-05-09T14:32:39.302Z,12.90
2017-05-09T14:35:06.144Z,12.50
2017-05-09T14:37:32.982Z,13.20
2017-05-09T14:39:59.746Z,14.00
2017-05-09T14:42:26.535Z,14.10
2017-05-09T14:44:53.357Z,14.70
2017-05-09T14:47:20.126Z,14.90
2017-05-09T14:49:46.950Z,14.30
2017-05-09T14:52:14.461Z,13.80
2017-05-09T14:54:41.230Z,13.10
2017-05-09T14:57:08.050Z,12.60
2017-05-09T14:59:34.823Z,12.00
2017-05-09T15:02:01.639Z,12.30
2017-05-09T15:04:28.499Z,13.20
2017-05-09T15:06:55.286Z,13.90
2017-05-09T15:09:22.086Z,13.90
2017-05-09T15:11:49.638Z,13.60
2017-05-09T15:14:16.415Z,13.20
2017-05-09T15:16:43.234Z,12.90
2017-05-09T15:19:09.997Z,12.60
2017-05-09T15:21:37.534Z,12.00
2017-05-09T15:24:04.306Z,11.90
2017-05-09T15:26:31.131Z,11.90
2017-05-09T15:28:57.916Z,12.10
2017-05-09T15:31:25.442Z,12.50
2017-05-09T15:33:52.310Z,12.80
2017-05-09T15:36:19.085Z,13.00
2017-05-09T15:38:45.871Z,13.20
2017-05-09T15:41:13.430Z,13.30
2017-05-09T15:43:40.942Z,13.20
2017-05-09T15:46:07.710Z,13.00
2017-05-09T15:48:34.558Z,13.20
2017-05-09T15:51:01.331Z,12.80
2017-05-09T15:53:28.123Z,12.10
2017-05-09T15:55:54.998Z,12.00
2017-05-09T15:58:22.509Z,11.80
2017-05-09T16:00:49.283Z,11.80
2017-05-09T16:03:16.156Z,11.50
2017-05-09T16:05:42.940Z,11.70
2017-05-09T16:08:10.497Z,11.80
2017-05-09T16:10:37.329Z,12.00
2017-05-09T16:13:04.178Z,11.70
2017-05-09T16:15:30.995Z,11.50
2017-05-09T16:17:57.810Z,11.50
2017-05-09T16:20:24.595Z,11.20
2017-05-09T16:22:51.367Z,11.40
2017-05-09T16:25:18.186Z,11.50
2017-05-09T16:27:44.962Z,11.60
2017-05-09T16:30:12.131Z,11.50
2017-05-09T16:32:39.694Z,11.10
2017-05-09T16:35:06.464Z,10.80
2017-05-09T16:37:33.275Z,10.80
2017-05-09T16:40:00.098Z,10.70
2017-05-09T16:42:26.946Z,10.70
2017-05-09T16:44:53.775Z,10.70
2017-05-09T16:47:20.554Z,10.70
2017-05-09T16:49:47.524Z,10.60
2017-05-09T16:52:14.349Z,10.50
2017-05-09T16:54:41.134Z,10.50
2017-05-09T16:57:08.467Z,10.40
2017-05-09T16:59:35.278Z,10.40
2017-05-09T17:02:02.052Z,10.30
2017-05-09T17:04:29.634Z,10.40
2017-05-09T17:06:56.413Z,10.50
2017-05-09T17:09:23.349Z,10.50
2017-05-09T17:11:50.866Z,10.50
2017-05-09T17:14:17.757Z,10.50
2017-05-09T17:16:44.564Z,10.50
2017-05-09T17:19:12.104Z,10.30
2017-05-09T17:21:38.939Z,10.30
2017-05-09T17:24:06.454Z,10.30
2017-05-09T17:26:33.231Z,10.30
2017-05-09T17:29:00.077Z,10.30
2017-05-09T17:31:26.879Z,10.00
2017-05-09T17:33:53.711Z,9.90
2017-05-09T17:36:20.550Z,9.70
2017-05-09T17:38:47.490Z,9.70
2017-05-09T17:41:14.366Z,9.60
2017-05-09T17:43:41.926Z,9.60
2017-05-09T17:46:09.433Z,9.50
2017-05-09T17:48:36.271Z,9.60
2017-05-09T17:51:03.050Z,9.50
2017-05-09T17:53:29.862Z,9.50
2017-05-09T17:55:56.646Z,9.50
2017-05-09T17:58:23.482Z,9.60
2017-05-09T18:00:50.274Z,9.40
2017-05-09T18:03:17.072Z,9.30
2017-05-09T18:05:43.928Z,9.40
2017-05-09T18:08:10.723Z,9.40
2017-05-09T18:10:37.498Z,9.30
2017-05-09T18:13:04.355Z,9.20
2017-05-09T18:15:31.134Z,9.20
2017-05-09T18:17:57.913Z,9.20
2017-05-09T18:20:25.478Z,9.20
2017-05-09T18:22:52.283Z,9.10
2017-05-09T18:25:19.062Z,9.20
2017-05-09T18:27:45.938Z,9.20
2017-05-09T18:30:12.767Z,9.20
2017-05-09T18:32:39.538Z,9.10
2017-05-09T18:35:06.416Z,9.10
2017-05-09T18:37:33.225Z,9.10
2017-05-09T18:40:00.081Z,9.10
2017-05-09T18:42:26.846Z,9.00
2017-05-09T18:44:53.670Z,9.00
2017-05-09T18:47:20.437Z,9.00
2017-05-09T18:49:47.209Z,9.00
2017-05-09T18:52:14.810Z,9.00
2017-05-09T18:54:41.578Z,9.00
2017-05-09T18:57:09.091Z,9.00
2017-05-09T18:59:35.931Z,9.00
2017-05-09T19:02:02.727Z,9.00
2017-05-09T19:04:29.510Z,8.90
2017-05-09T19:06:57.146Z,8.80
2017-05-09T19:09:24.653Z,8.70
2017-05-09T19:11:51.426Z,8.70
2017-05-09T19:14:18.987Z,8.60
2017-05-09T19:16:45.763Z,8.60
2017-05-09T19:19:12.591Z,8.50
2017-05-09T19:21:39.386Z,8.50
2017-05-09T19:24:06.170Z,8.40
2017-05-09T19:26:32.988Z,8.30
2017-05-09T19:29:00.514Z,8.10
2017-05-09T19:31:27.360Z,8.10
2017-05-09T19:33:54.923Z,8.00
2017-05-09T19:36:21.691Z,7.90
2017-05-09T19:38:48.507Z,7.90
2017-05-09T19:41:15.346Z,7.90
2017-05-09T19:43:42.123Z,7.90
2017-05-09T19:46:08.898Z,7.70
2017-05-09T19:48:35.710Z,7.60
2017-05-09T19:51:02.498Z,7.60
2017-05-09T19:53:30.095Z,7.50
2017-05-09T19:55:56.883Z,7.50
2017-05-09T19:58:23.723Z,7.40
2017-05-09T20:00:50.539Z,7.40
2017-05-09T20:03:17.383Z,7.30
2017-05-09T20:05:44.178Z,7.20
2017-05-09T20:08:11.754Z,7.10
2017-05-09T20:10:38.542Z,7.10
2017-05-09T20:13:05.327Z,6.90
2017-05-09T20:15:32.134Z,6.90
2017-05-09T20:17:59.034Z,6.90
2017-05-09T20:20:26.683Z,6.80
2017-05-09T20:22:53.685Z,6.80
2017-05-09T20:25:20.589Z,6.80
2017-05-09T20:27:47.358Z,6.60
2017-05-09T20:30:14.155Z,6.60
2017-05-09T20:32:41.018Z,6.40
2017-05-09T20:35:07.842Z,6.30
2017-05-09T20:37:35.470Z,6.10
2017-05-09T20:40:02.249Z,6.10
2017-05-09T20:42:29.818Z,6.00
2017-05-09T20:44:56.636Z,6.10
2017-05-09T20:47:23.423Z,6.20
2017-05-09T20:49:50.242Z,6.10
2017-05-09T20:52:17.083Z,5.90
2017-05-09T20:54:43.883Z,5.90
2017-05-09T20:57:10.679Z,5.90
2017-05-09T20:59:38.290Z,5.80
2017-05-09T21:02:05.083Z,5.80
2017-05-09T21:04:31.850Z,5.70
2017-05-09T21:06:58.670Z,5.70
2017-05-09T21:09:25.443Z,5.70
2017-05-09T21:11:52.968Z,5.70
2017-05-09T21:14:19.806Z,5.60
2017-05-09T21:16:47.320Z,5.60
2017-05-09T21:19:14.115Z,5.50
2017-05-09T21:21:40.940Z,5.50
2017-05-09T21:24:07.775Z,5.40
2017-05-09T21:26:34.564Z,5.50
2017-05-09T21:29:02.090Z,5.40
2017-05-09T21:31:28.911Z,5.40
2017-05-09T21:33:55.723Z,5.30
2017-05-09T21:36:22.522Z,5.40
2017-05-09T21:38:49.338Z,5.30
2017-05-09T21:41:16.110Z,5.20
2017-05-09T21:43:42.926Z,5.20
2017-05-09T21:46:09.771Z,5.20
2017-05-09T21:48:36.562Z,5.10
2017-05-09T21:51:03.371Z,5.10
2017-05-09T21:53:30.886Z,5.10
2017-05-09T21:55:57.711Z,5.00
2017-05-09T21:58:24.486Z,4.90
2017-05-09T22:00:51.271Z,4.90
2017-05-09T22:03:18.081Z,4.80
2017-05-09T22:05:44.862Z,4.70
2017-05-09T22:08:11.687Z,4.80
2017-05-09T22:10:38.475Z,4.80
2017-05-09T22:13:05.264Z,4.70
2017-05-09T22:15:32.098Z,4.70
2017-05-09T22:17:58.867Z,4.70
2017-05-09T22:20:25.637Z,4.70
2017-05-09T22:22:52.450Z,4.60
2017-05-09T22:25:19.266Z,4.60
2017-05-09T22:27:46.043Z,4.60
2017-05-09T22:30:12.832Z,4.60
2017-05-09T22:32:39.666Z,4.60
2017-05-09T22:35:07.223Z,4.60
2017-05-09T22:37:34.782Z,4.60
2017-05-09T22:40:01.555Z,4.60
2017-05-09T22:42:28.342Z,4.60
2017-05-09T22:44:55.171Z,4.60
2017-05-09T22:47:21.948Z,4.60
2017-05-09T22:49:48.723Z,4.50
2017-05-09T22:52:15.555Z,4.60
2017-05-09T22:54:42.371Z,4.60
2017-05-09T22:57:09.215Z,4.60
2017-05-09T22:59:35.986Z,4.50
2017-05-09T23:02:02.800Z,4.50
2017-05-09T23:04:29.619Z,4.50
2017-05-09T23:06:56.455Z,4.50
2017-05-09T23:09:23.226Z,4.40
2017-05-09T23:11:50.739Z,4.30
2017-05-09T23:14:17.555Z,4.40
2017-05-09T23:16:44.330Z,4.30
2017-05-09T23:19:11.115Z,4.40
2017-05-09T23:21:37.958Z,4.30
2017-05-09T23:24:04.733Z,4.30
2017-05-09T23:26:31.510Z,4.30
2017-05-09T23:28:58.327Z,4.30
2017-05-09T23:31:25.155Z,4.30
2017-05-09T23:33:51.930Z,4.20
2017-05-09T23:36:18.764Z,4.20
2017-05-09T23:38:45.574Z,4.20
2017-05-09T23:41:13.107Z,4.10
2017-05-09T23:43:40.674Z,4.00
2017-05-09T23:46:07.492Z,4.10
2017-05-09T23:48:35.007Z,4.00
2017-05-09T23:51:01.770Z,4.00
2017-05-09T23:53:28.586Z,4.00
2017-05-09T23:55:56.099Z,3.90
2017-05-09T23:58:22.930Z,3.90
